Waseca, MN

6:08 PM CST on February 27, 2017 (GMT -0600)
Waseca Municipal

Weather History for KACQ - September, 2012

Change the Weather History Date:

Friday, September 14, 2012

  Actual Average Record
Temperature  
Mean Temperature 63 °F -  
Max Temperature 80 °F 71 °F 96 °F (1939)
Min Temperature 46 °F 49 °F 32 °F (1929)
Degree Days  
Heating Degree Days 2    
Growing Degree Days 13 (Base 50)    
Moisture  
Dew Point 39 °F    
Average Humidity 47    
Maximum Humidity 82    
Minimum Humidity 15    
Precipitation  
Precipitation 0.00 in - - ()
Sea Level Pressure  
Sea Level Pressure 30.30 in    
Wind  
Wind Speed 6 mph (East)    
Max Wind Speed 12 mph    
Max Gust Speed 16 mph    
Visibility 10 miles    
Events      
Averages and records for this station are not official NWS values.
T = Trace of Precipitation, MM = Missing Value Source: NWS Daily Summary

Daily Weather History Graph

Daily Weather History Graph

Search for Another Location

Airport or City:

Trip Planner

Search our weather history database for the weather conditions in past years. The results will help you decide how hot, cold, wet, or windy it might be!

Date:

Astronomy

Sep. 14, 2012 Rise Set
Actual Time 6:52 AM CDT 7:25 PM CDT
Civil Twilight 6:23 AM CDT 7:54 PM CDT
Nautical Twilight 5:49 AM CDT 8:28 PM CDT
Astronomical Twilight 5:13 AM CDT 9:04 PM CDT
Moon 5:16 AM CDT (9/14) 6:22 PM CDT (9/14)
Length of Visible Light 13h 30m
Length of Day
12h 32m
Waning Crescent, 2% of the Moon is Illuminated
Sep 14
Waning Crescent
Sep 15
New
Sep 22
First Quarter
Sep 29
Full
Oct 8
Last Quarter

Hourly Weather History & Observations

Time (CDT) Temp. Windchill Dew Point Humidity Pressure Visibility Wind Dir Wind Speed Gust Speed Precip Events Conditions
12:12 AM 59.0 °F - 41.0 °F 51% 30.30 in 10.0 mi South 8.1 mph - N/A   Mostly Cloudy
12:32 AM 59.0 °F - 42.8 °F 55% 30.30 in 10.0 mi SSW 8.1 mph - N/A   Overcast
12:53 AM 59.0 °F - 42.8 °F 55% 30.30 in 10.0 mi SSW 6.9 mph - N/A   Overcast
1:12 AM 59.0 °F - 42.8 °F 55% 30.30 in 10.0 mi SW 8.1 mph - N/A   Overcast
1:32 AM 59.0 °F - 42.8 °F 55% 30.30 in 10.0 mi SW 10.4 mph - N/A   Mostly Cloudy
1:53 AM 59.0 °F - 44.6 °F 59% 30.30 in 10.0 mi SW 9.2 mph - N/A   Mostly Cloudy
2:13 AM 55.4 °F - 42.8 °F 63% 30.29 in 10.0 mi SW 9.2 mph - N/A   Scattered Clouds
2:33 AM 55.4 °F - 44.6 °F 67% 30.29 in 10.0 mi SW 8.1 mph - N/A   Scattered Clouds
2:53 AM 53.6 °F - 42.8 °F 67% 30.30 in 10.0 mi SW 8.1 mph - N/A   Scattered Clouds
3:13 AM 53.6 °F - 44.6 °F 72% 30.30 in 10.0 mi SW 6.9 mph - N/A   Clear
3:32 AM 53.6 °F - 44.6 °F 72% 30.30 in 10.0 mi SW 4.6 mph - N/A   Clear
3:53 AM 51.8 °F - 42.8 °F 71% 30.30 in 10.0 mi SSW 4.6 mph - N/A   Clear
4:12 AM 50.0 °F - 42.8 °F 76% 30.31 in 10.0 mi Calm Calm - N/A   Clear
4:32 AM 50.0 °F - 42.8 °F 76% 30.30 in 10.0 mi Calm Calm - N/A   Clear
4:53 AM 50.0 °F - 42.8 °F 76% 30.30 in 10.0 mi South 3.5 mph - N/A   Clear
5:13 AM 48.2 °F - 42.8 °F 82% 30.30 in 10.0 mi South 4.6 mph - N/A   Clear
5:32 AM 46.4 °F 45.2 °F 41.0 °F 81% 30.30 in 10.0 mi South 3.5 mph - N/A   Clear
5:53 AM 48.2 °F - 42.8 °F 82% 30.30 in 10.0 mi Calm Calm - N/A   Clear
6:13 AM 46.4 °F 45.2 °F 41.0 °F 81% 30.30 in 10.0 mi South 3.5 mph - N/A   Clear
6:33 AM 46.4 °F - 41.0 °F 81% 30.31 in 10.0 mi Calm Calm - N/A   Clear
6:52 AM 46.4 °F - 41.0 °F 81% 30.31 in 10.0 mi Calm Calm - N/A   Clear
7:13 AM 46.4 °F - 41.0 °F 81% 30.31 in 10.0 mi Calm Calm - N/A   Clear
7:33 AM 46.4 °F - 41.0 °F 81% 30.32 in 10.0 mi Calm Calm - N/A   Clear
7:53 AM 48.2 °F - 42.8 °F 82% 30.33 in 10.0 mi Calm Calm - N/A   Clear
8:12 AM 51.8 °F - 46.4 °F 82% 30.34 in 10.0 mi Calm Calm - N/A   Clear
8:33 AM 53.6 °F - 46.4 °F 77% 30.34 in 10.0 mi Calm Calm - N/A   Clear
8:53 AM 55.4 °F - 46.4 °F 72% 30.34 in 10.0 mi Calm Calm - N/A   Clear
9:13 AM 59.0 °F - 46.4 °F 63% 30.34 in 10.0 mi Calm Calm - N/A   Clear
9:32 AM 59.0 °F - 46.4 °F 63% 30.34 in 10.0 mi Calm Calm - N/A   Clear
9:53 AM 62.6 °F - 46.4 °F 55% 30.34 in 10.0 mi Calm Calm - N/A   Clear
10:13 AM 64.4 °F - 46.4 °F 52% 30.34 in 10.0 mi ESE 5.8 mph - N/A   Clear
10:33 AM 64.4 °F - 44.6 °F 49% 30.34 in 10.0 mi ESE 5.8 mph - N/A   Clear
10:52 AM 68.0 °F - 44.6 °F 43% 30.35 in 10.0 mi East 8.1 mph - N/A   Clear
11:13 AM 69.8 °F - 42.8 °F 38% 30.34 in 10.0 mi East 8.1 mph - N/A   Clear
11:33 AM 71.6 °F - 35.6 °F 27% 30.34 in 10.0 mi ENE 11.5 mph 16.1 mph N/A   Clear
11:52 AM 73.4 °F - 33.8 °F 23% 30.34 in 10.0 mi East 11.5 mph 16.1 mph N/A   Clear
12:13 PM 73.4 °F - 32.0 °F 22% 30.34 in 10.0 mi East 9.2 mph - N/A   Clear
12:32 PM 73.4 °F - 32.0 °F 22% 30.33 in 10.0 mi NE 9.2 mph - N/A   Clear
12:53 PM 75.2 °F - 32.0 °F 21% 30.32 in 10.0 mi NE 8.1 mph - N/A   Clear
1:13 PM 77.0 °F - 32.0 °F 19% 30.32 in 10.0 mi ENE 8.1 mph - N/A   Clear
1:33 PM 77.0 °F - 32.0 °F 19% 30.32 in 10.0 mi ENE 6.9 mph - N/A   Clear
1:53 PM 80.6 °F - 32.0 °F 17% 30.31 in 10.0 mi ESE 6.9 mph - N/A   Clear
2:13 PM 77.0 °F - 30.2 °F 18% 30.31 in 10.0 mi NE 3.5 mph - N/A   Clear
2:32 PM 77.0 °F - 30.2 °F 18% 30.30 in 10.0 mi NNE 5.8 mph - N/A   Clear
2:53 PM 80.6 °F - 30.2 °F 16% 30.30 in 10.0 mi NE 6.9 mph - N/A   Clear
3:13 PM 80.6 °F - 30.2 °F 16% 30.29 in 10.0 mi NE 3.5 mph - N/A   Clear
3:33 PM 80.6 °F - 28.4 °F 15% 30.29 in 10.0 mi ENE 6.9 mph - N/A   Clear
3:53 PM 80.6 °F - 28.4 °F 15% 30.28 in 10.0 mi NE 3.5 mph - N/A   Clear
4:13 PM 80.6 °F - 28.4 °F 15% 30.28 in 10.0 mi NE 3.5 mph - N/A   Clear
4:33 PM 80.6 °F - 30.2 °F 16% 30.28 in 10.0 mi NE 6.9 mph - N/A   Clear
4:53 PM 80.6 °F - 30.2 °F 16% 30.28 in 7.0 mi NE 5.8 mph - N/A   Clear
5:12 PM 80.6 °F - 30.2 °F 16% 30.27 in 10.0 mi NE 4.6 mph - N/A   Clear
5:33 PM 80.6 °F - 30.2 °F 16% 30.27 in 10.0 mi NE 3.5 mph - N/A   Clear
5:53 PM 80.6 °F - 32.0 °F 17% 30.27 in 7.0 mi ENE 5.8 mph - N/A   Clear
6:13 PM 77.0 °F - 33.8 °F 21% 30.26 in 5.0 mi ENE 5.8 mph - N/A   Haze
6:33 PM 73.4 °F - 33.8 °F 23% 30.26 in 10.0 mi ENE 5.8 mph - N/A   Clear
6:53 PM 73.4 °F - 35.6 °F 25% 30.26 in 10.0 mi ENE 5.8 mph - N/A   Clear
7:13 PM 69.8 °F - 35.6 °F 28% 30.26 in 10.0 mi ENE 4.6 mph - N/A   Clear
7:33 PM 66.2 °F - 41.0 °F 40% 30.26 in 10.0 mi ENE 4.6 mph - N/A   Clear
7:53 PM 62.6 °F - 41.0 °F 45% 30.26 in 10.0 mi ENE 5.8 mph - N/A   Clear
8:13 PM 62.6 °F - 41.0 °F 45% 30.27 in 10.0 mi ENE 4.6 mph - N/A   Clear
8:32 PM 62.6 °F - 39.2 °F 42% 30.27 in 10.0 mi East 8.1 mph - N/A   Clear
8:53 PM 62.6 °F - 41.0 °F 45% 30.27 in 10.0 mi East 6.9 mph - N/A   Clear
9:13 PM 62.6 °F - 41.0 °F 45% 30.27 in 10.0 mi East 8.1 mph - N/A   Clear
9:33 PM 62.6 °F - 41.0 °F 45% 30.27 in 10.0 mi East 8.1 mph - N/A   Clear
9:53 PM 62.6 °F - 41.0 °F 45% 30.27 in 10.0 mi East 8.1 mph - N/A   Clear
10:13 PM 59.0 °F - 37.4 °F 45% 30.27 in 10.0 mi East 9.2 mph - N/A   Clear
10:33 PM 59.0 °F - 41.0 °F 51% 30.27 in 10.0 mi East 9.2 mph - N/A   Clear
10:52 PM 59.0 °F - 39.2 °F 48% 30.27 in 10.0 mi East 10.4 mph - N/A   Clear
11:33 PM 59.0 °F - 41.0 °F 51% 30.27 in 10.0 mi East 9.2 mph - N/A   Clear
11:52 PM 55.4 °F - 41.0 °F 58% 30.26 in 10.0 mi ESE 9.2 mph - N/A   Clear